createdAt,value
2023-01-07T00:01:50.089Z,10.37
2023-01-07T00:04:19.897Z,9.47
2023-01-07T00:06:52.983Z,9.17
2023-01-07T00:09:23.728Z,7.87
2023-01-07T00:11:52.917Z,9.80
2023-01-07T00:14:22.212Z,11.57
2023-01-07T00:16:53.611Z,8.67
2023-01-07T00:19:24.577Z,6.87
2023-01-07T00:21:55.326Z,6.73
2023-01-07T00:24:24.946Z,10.40
2023-01-07T00:26:54.056Z,9.87
2023-01-07T00:29:23.248Z,7.37
2023-01-07T00:31:54.023Z,5.33
2023-01-07T00:34:25.530Z,7.80
2023-01-07T00:37:16.815Z,6.33
2023-01-07T00:39:46.361Z,6.30
2023-01-07T00:42:33.159Z,7.97
2023-01-07T00:45:02.976Z,6.30
2023-01-07T00:47:32.200Z,7.03
2023-01-07T00:50:01.863Z,7.30
2023-01-07T00:52:32.521Z,7.27
2023-01-07T00:55:02.426Z,7.23
2023-01-07T00:57:33.012Z,7.73
2023-01-07T01:00:02.706Z,8.40
2023-01-07T01:02:32.230Z,7.93
2023-01-07T01:05:01.624Z,7.73
2023-01-07T01:07:32.591Z,6.77
2023-01-07T01:10:02.857Z,8.63
2023-01-07T01:12:32.344Z,9.17
2023-01-07T01:15:02.458Z,7.33
2023-01-07T01:17:31.911Z,7.63
2023-01-07T01:20:01.564Z,8.17
2023-01-07T01:22:31.257Z,9.57
2023-01-07T01:25:02.302Z,8.10
2023-01-07T01:27:32.137Z,12.43
2023-01-07T01:30:02.957Z,11.80
2023-01-07T01:32:33.848Z,8.90
2023-01-07T01:35:03.377Z,11.73
2023-01-07T01:37:32.931Z,14.97
2023-01-07T01:40:04.581Z,17.47
2023-01-07T01:42:34.434Z,16.87
2023-01-07T01:45:06.876Z,16.83
2023-01-07T01:47:44.773Z,17.00
2023-01-07T01:50:19.651Z,20.40
2023-01-07T01:52:57.326Z,18.43
2023-01-07T01:55:33.626Z,16.67
2023-01-07T01:58:06.088Z,19.77
2023-01-07T02:00:36.119Z,18.17
2023-01-07T02:03:11.004Z,21.90
2023-01-07T02:05:42.808Z,21.33
2023-01-07T02:08:12.412Z,18.00
2023-01-07T02:10:44.999Z,19.97
2023-01-07T02:13:27.944Z,20.30
2023-01-07T02:16:04.481Z,20.87
2023-01-07T02:18:52.421Z,21.00
2023-01-07T02:21:41.222Z,17.43
2023-01-07T02:24:43.291Z,20.67
2023-01-07T02:27:29.100Z,18.70
2023-01-07T02:30:40.652Z,17.87
2023-01-07T02:33:35.593Z,18.60
2023-01-07T02:36:23.833Z,16.60
2023-01-07T02:39:04.601Z,19.50
2023-01-07T02:41:46.407Z,18.40
2023-01-07T02:44:24.906Z,20.30
2023-01-07T02:47:02.380Z,21.87
2023-01-07T02:49:34.490Z,15.80
2023-01-07T02:52:23.408Z,21.33
2023-01-07T02:54:56.659Z,17.57
2023-01-07T02:58:09.086Z,22.70
2023-01-07T03:00:59.247Z,24.07
2023-01-07T03:03:49.653Z,24.23
2023-01-07T03:06:48.449Z,21.50
2023-01-07T03:09:28.290Z,21.63
2023-01-07T03:12:06.710Z,17.07
2023-01-07T03:14:42.645Z,18.37
2023-01-07T03:17:17.666Z,21.20
2023-01-07T03:19:51.759Z,20.53
2023-01-07T03:22:26.928Z,22.33
2023-01-07T03:24:58.580Z,20.73
2023-01-07T03:27:32.216Z,21.77
2023-01-07T03:30:03.756Z,23.83
2023-01-07T03:32:40.447Z,20.03
2023-01-07T03:35:10.347Z,27.33
2023-01-07T03:37:44.537Z,21.37
2023-01-07T03:40:15.181Z,25.50
2023-01-07T03:42:43.408Z,20.20
2023-01-07T03:45:22.276Z,18.63
2023-01-07T03:47:53.413Z,21.10
2023-01-07T03:50:23.861Z,23.27
2023-01-07T03:52:55.415Z,19.70
2023-01-07T03:55:26.415Z,18.27
2023-01-07T03:57:58.290Z,19.00
2023-01-07T04:00:28.347Z,19.90
2023-01-07T04:03:03.897Z,19.57
2023-01-07T04:05:38.277Z,15.73
2023-01-07T04:08:09.523Z,20.40
2023-01-07T04:10:41.411Z,23.30
2023-01-07T04:13:11.366Z,23.27
2023-01-07T04:15:41.530Z,19.30
2023-01-07T04:18:11.298Z,16.97
2023-01-07T04:20:40.240Z,14.23
2023-01-07T04:23:10.861Z,22.43
2023-01-07T04:25:40.962Z,15.47
2023-01-07T04:28:11.830Z,15.27
2023-01-07T04:30:41.409Z,19.30
2023-01-07T04:33:12.176Z,15.53
2023-01-07T04:35:42.707Z,17.03
2023-01-07T04:38:13.438Z,15.17
2023-01-07T04:40:42.621Z,15.97
2023-01-07T04:43:11.839Z,18.40
2023-01-07T04:45:40.971Z,14.37
2023-01-07T04:48:10.847Z,13.77
2023-01-07T04:50:40.348Z,20.03
2023-01-07T04:53:10.377Z,14.80
2023-01-07T04:55:44.354Z,14.03
2023-01-07T04:58:15.158Z,16.10
2023-01-07T05:00:44.252Z,14.20
2023-01-07T05:03:14.303Z,13.30
2023-01-07T05:05:43.929Z,18.27
2023-01-07T05:08:13.528Z,16.73
2023-01-07T05:10:44.027Z,15.07
2023-01-07T05:13:16.855Z,18.10
2023-01-07T05:15:48.663Z,19.07
2023-01-07T05:18:18.544Z,15.83
2023-01-07T05:20:48.771Z,18.30
2023-01-07T05:23:18.418Z,17.00
2023-01-07T05:25:49.776Z,16.77
2023-01-07T05:28:20.417Z,19.37
2023-01-07T05:30:49.807Z,19.80
2023-01-07T05:33:19.642Z,23.57
2023-01-07T05:35:50.249Z,18.93
2023-01-07T05:38:20.592Z,21.07
2023-01-07T05:40:51.691Z,23.23
2023-01-07T05:43:25.335Z,18.30
2023-01-07T05:45:56.814Z,21.03
2023-01-07T05:48:26.025Z,19.10
2023-01-07T05:50:55.495Z,22.93
2023-01-07T05:53:25.258Z,23.03
2023-01-07T05:55:59.804Z,20.50
2023-01-07T05:58:29.580Z,20.30
2023-01-07T06:00:58.584Z,20.27
2023-01-07T06:03:28.065Z,26.10
2023-01-07T06:05:57.392Z,19.70
2023-01-07T06:08:26.848Z,22.70
2023-01-07T06:10:56.239Z,24.40
2023-01-07T06:13:26.908Z,28.37
2023-01-07T06:15:56.242Z,19.63
2023-01-07T06:18:25.707Z,23.63
2023-01-07T06:20:54.727Z,22.53
2023-01-07T06:23:24.052Z,23.33
2023-01-07T06:25:53.582Z,22.27
2023-01-07T06:28:22.887Z,25.47
2023-01-07T06:30:53.058Z,20.83
2023-01-07T06:33:22.584Z,20.80
2023-01-07T06:35:52.108Z,23.87
2023-01-07T06:38:21.527Z,22.20
2023-01-07T06:40:51.328Z,22.77
2023-01-07T06:43:20.415Z,23.00
2023-01-07T06:45:50.013Z,28.93
2023-01-07T06:48:20.890Z,22.90
2023-01-07T06:50:50.252Z,22.40
2023-01-07T06:53:19.180Z,21.10
2023-01-07T06:55:50.413Z,19.33
2023-01-07T06:58:20.480Z,25.20
2023-01-07T07:00:50.277Z,22.77
2023-01-07T07:03:20.919Z,25.93
2023-01-07T07:05:50.361Z,18.97
2023-01-07T07:08:19.721Z,26.40
2023-01-07T07:10:53.224Z,21.80
2023-01-07T07:13:22.376Z,23.53
2023-01-07T07:15:51.965Z,21.37
2023-01-07T07:18:23.038Z,24.57
2023-01-07T07:20:52.241Z,21.17
2023-01-07T07:23:21.499Z,22.20
2023-01-07T07:25:50.933Z,25.70
2023-01-07T07:28:20.179Z,27.40
2023-01-07T07:30:50.513Z,26.37
2023-01-07T07:33:22.311Z,29.30
2023-01-07T07:35:51.787Z,32.03
2023-01-07T07:38:21.262Z,27.80
2023-01-07T07:40:50.595Z,34.97
2023-01-07T07:43:19.791Z,30.37
2023-01-07T07:45:49.305Z,31.67
2023-01-07T07:48:18.298Z,34.57
2023-01-07T07:50:52.430Z,30.10
2023-01-07T07:53:22.235Z,34.30
2023-01-07T07:55:53.645Z,31.53
2023-01-07T07:58:22.844Z,31.50
2023-01-07T08:00:52.277Z,33.50
2023-01-07T08:03:21.629Z,32.70
2023-01-07T08:05:52.851Z,36.37
2023-01-07T08:08:22.674Z,37.70
2023-01-07T08:10:52.057Z,37.53
2023-01-07T08:13:22.006Z,36.03
2023-01-07T08:15:51.713Z,40.23
2023-01-07T08:18:21.395Z,37.33
2023-01-07T08:20:51.132Z,44.73
2023-01-07T08:23:22.614Z,36.70
2023-01-07T08:25:52.728Z,43.10
2023-01-07T08:28:22.075Z,44.27
2023-01-07T08:30:51.525Z,47.40
2023-01-07T08:33:21.099Z,37.17
2023-01-07T08:35:50.540Z,32.97
2023-01-07T08:38:20.113Z,30.93
2023-01-07T08:40:51.819Z,33.43
2023-01-07T08:43:24.566Z,29.53
2023-01-07T08:45:54.196Z,28.37
2023-01-07T08:48:23.883Z,29.27
2023-01-07T08:50:54.600Z,25.83
2023-01-07T08:53:24.910Z,24.63
2023-01-07T08:55:55.399Z,26.83
2023-01-07T08:58:25.857Z,25.00
2023-01-07T09:00:55.447Z,30.77
2023-01-07T09:03:25.723Z,26.23
2023-01-07T09:05:55.581Z,25.00
2023-01-07T09:08:25.422Z,20.00
2023-01-07T09:10:56.564Z,20.37
2023-01-07T09:13:26.396Z,21.10
2023-01-07T09:15:56.664Z,19.67
2023-01-07T09:18:26.071Z,23.13
2023-01-07T09:20:57.347Z,25.87
2023-01-07T09:23:26.924Z,21.93
2023-01-07T09:25:57.838Z,20.27
2023-01-07T09:28:27.746Z,26.83
2023-01-07T09:30:57.880Z,30.07
2023-01-07T09:33:27.621Z,37.60
2023-01-07T09:35:57.262Z,43.77
2023-01-07T09:38:27.288Z,39.07
2023-01-07T09:40:59.472Z,36.40
2023-01-07T09:43:59.690Z,27.87
2023-01-07T09:46:26.047Z,46.00
2023-01-07T09:49:01.665Z,69.07
2023-01-07T09:51:36.587Z,42.37
2023-01-07T09:54:07.897Z,27.27
2023-01-07T09:56:42.035Z,22.97
2023-01-07T09:59:14.897Z,24.37
2023-01-07T10:01:48.227Z,19.37
2023-01-07T10:04:37.051Z,17.60
2023-01-07T10:07:17.467Z,20.90
2023-01-07T10:10:07.263Z,18.13
2023-01-07T10:12:43.818Z,20.77
2023-01-07T10:15:47.741Z,15.67
2023-01-07T10:18:33.441Z,17.10
2023-01-07T10:21:14.398Z,17.77
2023-01-07T10:23:46.615Z,15.90
2023-01-07T10:26:30.911Z,14.63
2023-01-07T10:29:07.195Z,15.63
2023-01-07T10:31:36.527Z,14.20
2023-01-07T10:34:14.768Z,13.33
2023-01-07T10:36:57.302Z,14.10
2023-01-07T10:39:35.396Z,14.30
2023-01-07T10:42:19.283Z,14.23
2023-01-07T10:45:24.766Z,18.70
2023-01-07T10:48:04.960Z,15.53
2023-01-07T10:50:54.587Z,14.27
2023-01-07T10:53:37.745Z,14.13
2023-01-07T10:56:19.509Z,16.80
2023-01-07T10:58:50.946Z,16.17
2023-01-07T11:01:26.922Z,16.47
2023-01-07T11:03:58.310Z,17.70
2023-01-07T11:06:39.311Z,15.33
2023-01-07T11:09:16.368Z,20.50
2023-01-07T11:11:46.805Z,22.50
2023-01-07T11:14:21.569Z,18.13
2023-01-07T11:16:56.105Z,15.50
2023-01-07T11:19:42.640Z,19.10
2023-01-07T11:22:30.263Z,20.33
2023-01-07T11:25:00.557Z,17.73
2023-01-07T11:27:31.952Z,20.27
2023-01-07T11:30:04.123Z,20.00
2023-01-07T11:32:38.729Z,16.67
2023-01-07T11:35:22.374Z,14.93
2023-01-07T11:37:52.859Z,15.00
2023-01-07T11:40:25.278Z,14.63
2023-01-07T11:42:57.417Z,14.17
2023-01-07T11:45:30.146Z,12.37
2023-01-07T11:48:08.709Z,17.83
2023-01-07T11:50:40.835Z,12.23
2023-01-07T11:53:25.755Z,15.53
2023-01-07T11:56:12.412Z,19.30
2023-01-07T11:58:44.343Z,28.63
2023-01-07T12:01:17.828Z,20.70
2023-01-07T12:04:13.078Z,17.63
2023-01-07T12:06:54.301Z,18.17
2023-01-07T12:09:35.943Z,19.10
2023-01-07T12:12:32.172Z,15.33
2023-01-07T12:15:03.462Z,18.80
2023-01-07T12:17:36.704Z,16.60
2023-01-07T12:20:34.527Z,16.77
2023-01-07T12:23:15.295Z,14.73
2023-01-07T12:25:56.886Z,14.70
2023-01-07T12:28:39.478Z,15.40
2023-01-07T12:31:30.964Z,15.20
2023-01-07T12:34:09.405Z,13.85
2023-01-07T12:36:47.300Z,10.50
2023-01-07T12:39:24.069Z,9.52
2023-01-07T12:42:00.580Z,9.00
2023-01-07T12:44:29.815Z,6.38
2023-01-07T12:47:30.932Z,6.43
2023-01-07T12:50:05.788Z,7.05
2023-01-07T12:52:42.825Z,8.55
2023-01-07T12:55:21.319Z,7.45
2023-01-07T12:58:01.066Z,5.97
2023-01-07T13:00:34.169Z,4.85
2023-01-07T13:03:16.198Z,8.27
2023-01-07T13:05:57.834Z,7.05
2023-01-07T13:08:37.231Z,8.60
2023-01-07T13:11:18.845Z,6.70
2023-01-07T13:13:53.287Z,6.65
2023-01-07T13:16:23.085Z,7.90
2023-01-07T13:18:52.386Z,5.35
2023-01-07T13:21:24.271Z,6.95
2023-01-07T13:24:11.339Z,7.75
2023-01-07T13:26:54.021Z,6.75
2023-01-07T13:29:31.748Z,11.52
2023-01-07T13:32:33.022Z,8.05
2023-01-07T13:35:18.851Z,11.85
2023-01-07T13:38:01.700Z,8.88
2023-01-07T13:40:48.686Z,11.43
2023-01-07T13:43:32.623Z,10.38
2023-01-07T13:46:08.121Z,11.00
2023-01-07T13:48:39.127Z,9.48
2023-01-07T13:51:11.223Z,11.23
2023-01-07T13:53:48.077Z,10.68
2023-01-07T13:56:53.326Z,11.77
2023-01-07T13:59:48.584Z,11.20
2023-01-07T14:02:23.329Z,9.03
2023-01-07T14:05:05.210Z,8.20
2023-01-07T14:07:45.248Z,6.30
2023-01-07T14:10:24.856Z,7.80
2023-01-07T14:13:12.914Z,18.37
2023-01-07T14:16:03.640Z,10.87
2023-01-07T14:18:59.679Z,13.63
2023-01-07T14:22:01.167Z,14.67
2023-01-07T14:24:57.544Z,18.97
2023-01-07T14:27:52.128Z,15.63
2023-01-07T14:30:26.530Z,12.77
2023-01-07T14:33:00.023Z,12.33
2023-01-07T14:35:34.439Z,12.07
2023-01-07T14:38:03.830Z,14.47
2023-01-07T14:41:09.990Z,18.30
2023-01-07T14:44:13.255Z,15.40
2023-01-07T14:46:52.700Z,16.80
2023-01-07T14:49:50.115Z,14.67
2023-01-07T14:53:05.455Z,15.03
2023-01-07T14:56:04.005Z,17.03
2023-01-07T14:58:45.560Z,15.07
2023-01-07T15:01:35.146Z,16.70
2023-01-07T15:04:33.914Z,15.83
2023-01-07T15:07:06.956Z,21.87
2023-01-07T15:10:01.528Z,20.50
2023-01-07T15:12:51.186Z,22.07
2023-01-07T15:15:42.097Z,24.40
2023-01-07T15:18:13.161Z,22.53
2023-01-07T15:20:49.825Z,32.97
2023-01-07T15:23:26.822Z,29.63
2023-01-07T15:26:02.752Z,30.53
2023-01-07T15:28:41.207Z,31.23
2023-01-07T15:31:19.303Z,29.77
2023-01-07T15:34:03.264Z,28.43
2023-01-07T15:36:33.388Z,29.40
2023-01-07T15:39:06.294Z,32.23
2023-01-07T15:41:36.831Z,33.50
2023-01-07T15:44:07.779Z,30.40
2023-01-07T15:46:43.380Z,37.10
2023-01-07T15:49:22.264Z,32.57
2023-01-07T15:51:53.718Z,35.97
2023-01-07T15:54:30.142Z,42.53
2023-01-07T15:57:03.912Z,42.97
2023-01-07T15:59:35.845Z,34.80
2023-01-07T16:02:28.073Z,41.70
2023-01-07T16:04:59.638Z,33.27
2023-01-07T16:07:30.794Z,43.73
2023-01-07T16:10:02.369Z,43.27
2023-01-07T16:12:34.469Z,41.57
2023-01-07T16:15:05.218Z,46.97
2023-01-07T16:17:36.442Z,44.40
2023-01-07T16:20:20.601Z,50.33
2023-01-07T16:22:51.449Z,47.23
2023-01-07T16:25:31.947Z,46.07
2023-01-07T16:28:01.222Z,51.30
2023-01-07T16:30:31.183Z,51.63
2023-01-07T16:33:01.021Z,57.47
2023-01-07T16:35:34.235Z,56.10
2023-01-07T16:38:06.720Z,50.00
2023-01-07T16:40:39.426Z,57.23
2023-01-07T16:43:33.185Z,49.23
2023-01-07T16:46:20.522Z,55.83
2023-01-07T16:49:11.178Z,49.53
2023-01-07T16:51:43.861Z,51.60
2023-01-07T16:54:34.605Z,56.00
2023-01-07T16:57:07.673Z,53.13
2023-01-07T16:59:38.986Z,48.10
2023-01-07T17:02:31.430Z,53.43
2023-01-07T17:05:18.587Z,50.57
2023-01-07T17:07:49.904Z,50.70
2023-01-07T17:10:24.630Z,52.60
2023-01-07T17:13:02.220Z,49.67
2023-01-07T17:15:39.666Z,48.87
2023-01-07T17:18:29.269Z,46.33
2023-01-07T17:21:01.343Z,40.77
2023-01-07T17:23:41.862Z,41.33
2023-01-07T17:26:24.443Z,44.53
2023-01-07T17:28:59.645Z,51.27
2023-01-07T17:31:30.423Z,51.80
2023-01-07T17:34:00.214Z,45.63
2023-01-07T17:36:29.427Z,52.93
2023-01-07T17:38:59.237Z,53.73
2023-01-07T17:41:46.256Z,55.50
2023-01-07T17:44:17.207Z,56.37
2023-01-07T17:46:47.319Z,55.43
2023-01-07T17:49:18.524Z,48.23
2023-01-07T17:51:50.233Z,54.53
2023-01-07T17:54:23.365Z,57.17
2023-01-07T17:56:53.222Z,69.73
2023-01-07T17:59:26.563Z,64.30
2023-01-07T18:01:57.446Z,89.27
2023-01-07T18:04:27.008Z,80.03
2023-01-07T18:06:56.604Z,91.57
2023-01-07T18:09:26.312Z,79.77
2023-01-07T18:12:12.639Z,84.93
2023-01-07T18:14:43.715Z,62.60
2023-01-07T18:17:13.474Z,48.87
2023-01-07T18:19:43.468Z,49.23
2023-01-07T18:22:13.179Z,43.57
2023-01-07T18:24:42.659Z,44.90
2023-01-07T18:27:15.775Z,45.37
2023-01-07T18:29:49.994Z,48.87
2023-01-07T18:32:20.774Z,54.97
2023-01-07T18:34:50.188Z,50.87
2023-01-07T18:37:20.306Z,61.40
2023-01-07T18:39:50.231Z,74.73
2023-01-07T18:42:21.251Z,65.23
2023-01-07T18:44:53.149Z,64.80
2023-01-07T18:47:22.588Z,58.17
2023-01-07T18:49:52.030Z,66.87
2023-01-07T18:52:21.579Z,67.33
2023-01-07T18:54:52.542Z,58.87
2023-01-07T18:57:22.393Z,60.03
2023-01-07T18:59:55.528Z,59.87
2023-01-07T19:02:25.917Z,69.30
2023-01-07T19:04:55.579Z,66.50
2023-01-07T19:07:24.582Z,69.23
2023-01-07T19:09:54.130Z,79.53
2023-01-07T19:12:23.509Z,87.80
2023-01-07T19:14:54.903Z,77.47
2023-01-07T19:17:24.866Z,79.03
2023-01-07T19:19:54.511Z,81.73
2023-01-07T19:22:23.752Z,73.40
2023-01-07T19:24:53.383Z,67.47
2023-01-07T19:27:22.927Z,77.80
2023-01-07T19:29:57.031Z,81.70
2023-01-07T19:32:27.460Z,83.70
2023-01-07T19:34:56.983Z,73.10
2023-01-07T19:37:26.540Z,81.30
2023-01-07T19:39:56.615Z,79.20
2023-01-07T19:42:26.446Z,84.93
2023-01-07T19:44:56.873Z,89.17
2023-01-07T19:47:26.495Z,91.07
2023-01-07T19:49:55.715Z,87.10
2023-01-07T19:52:25.134Z,87.90
2023-01-07T19:54:54.482Z,88.60
2023-01-07T19:57:24.230Z,92.43
2023-01-07T19:59:53.630Z,91.70
2023-01-07T20:02:24.796Z,96.37
2023-01-07T20:04:54.145Z,115.37
2023-01-07T20:07:23.410Z,101.50
2023-01-07T20:09:53.281Z,103.40
2023-01-07T20:12:22.900Z,98.20
2023-01-07T20:14:52.375Z,99.57
2023-01-07T20:17:21.673Z,100.50
2023-01-07T20:19:53.780Z,97.83
2023-01-07T20:22:24.255Z,99.07
2023-01-07T20:24:54.139Z,99.70
2023-01-07T20:27:23.770Z,97.97
2023-01-07T20:29:53.389Z,105.07
2023-01-07T20:32:22.841Z,113.10
2023-01-07T20:34:53.965Z,97.37
2023-01-07T20:37:24.429Z,102.70
2023-01-07T20:39:54.124Z,234.13
2023-01-07T20:42:24.001Z,114.23
2023-01-07T20:44:54.087Z,109.10
2023-01-07T20:47:23.530Z,96.47
2023-01-07T20:49:55.051Z,104.17
2023-01-07T20:52:25.648Z,104.10
2023-01-07T20:54:54.685Z,94.57
2023-01-07T20:57:24.133Z,96.67
2023-01-07T20:59:53.640Z,93.67
2023-01-07T21:02:23.570Z,96.07
2023-01-07T21:04:54.800Z,104.20
2023-01-07T21:07:24.228Z,97.27
2023-01-07T21:09:53.812Z,99.53
2023-01-07T21:12:23.200Z,98.50
2023-01-07T21:14:55.164Z,102.27
2023-01-07T21:17:24.444Z,100.33
2023-01-07T21:19:55.178Z,98.33
2023-01-07T21:22:24.375Z,98.93
2023-01-07T21:24:53.906Z,91.33
2023-01-07T21:27:23.679Z,114.20
2023-01-07T21:29:53.306Z,90.27
2023-01-07T21:32:22.790Z,88.10
2023-01-07T21:34:52.420Z,86.13
2023-01-07T21:37:23.216Z,79.43
2023-01-07T21:39:53.222Z,87.50
2023-01-07T21:42:22.542Z,91.07
2023-01-07T21:44:52.142Z,75.20
2023-01-07T21:47:21.536Z,74.10
2023-01-07T21:49:53.772Z,76.80
2023-01-07T21:52:24.699Z,183.53
2023-01-07T21:54:56.520Z,68.47
2023-01-07T21:57:26.045Z,70.83
2023-01-07T21:59:55.567Z,75.63
2023-01-07T22:02:25.042Z,76.43
2023-01-07T22:04:54.175Z,80.00
2023-01-07T22:07:25.407Z,78.83
2023-01-07T22:09:55.540Z,75.13
2023-01-07T22:12:26.203Z,74.83
2023-01-07T22:14:56.220Z,71.33
2023-01-07T22:17:25.788Z,69.20
2023-01-07T22:19:56.851Z,65.00
2023-01-07T22:22:28.959Z,67.57
2023-01-07T22:24:58.189Z,63.70
2023-01-07T22:27:28.063Z,67.40
2023-01-07T22:29:58.032Z,61.37
2023-01-07T22:32:27.176Z,69.03
2023-01-07T22:34:56.373Z,62.73
2023-01-07T22:37:27.316Z,62.97
2023-01-07T22:40:02.435Z,64.47
2023-01-07T22:42:36.265Z,59.97
2023-01-07T22:45:12.624Z,54.00
2023-01-07T22:47:46.854Z,63.63
2023-01-07T22:50:17.621Z,64.77
2023-01-07T22:52:47.452Z,62.00
2023-01-07T22:55:19.287Z,63.80
2023-01-07T22:57:48.936Z,60.60
2023-01-07T23:00:48.765Z,62.27
2023-01-07T23:03:18.526Z,63.07
2023-01-07T23:05:48.738Z,65.77
2023-01-07T23:08:18.561Z,64.50
2023-01-07T23:10:49.994Z,65.37
2023-01-07T23:13:19.452Z,60.37
2023-01-07T23:15:48.866Z,67.50
2023-01-07T23:18:18.354Z,69.47
2023-01-07T23:20:48.099Z,71.83
2023-01-07T23:23:17.402Z,75.43
2023-01-07T23:25:48.904Z,72.20
2023-01-07T23:28:19.871Z,67.17
2023-01-07T23:30:49.511Z,72.67
2023-01-07T23:33:19.468Z,73.67
2023-01-07T23:35:48.995Z,71.70
2023-01-07T23:38:18.563Z,90.70
2023-01-07T23:40:50.290Z,92.63
2023-01-07T23:43:19.648Z,81.33
2023-01-07T23:45:49.252Z,81.03
2023-01-07T23:48:18.478Z,81.60
2023-01-07T23:50:47.921Z,79.83
2023-01-07T23:53:17.091Z,79.83
2023-01-07T23:55:54.979Z,79.70
2023-01-07T23:58:25.452Z,90.77
